createdAt,value
2022-11-05T00:00:57.264Z,9.43
2022-11-05T00:03:42.414Z,7.97
2022-11-05T00:06:34.553Z,7.53
2022-11-05T00:09:22.510Z,6.13
2022-11-05T00:12:11.469Z,5.43
2022-11-05T00:15:00.573Z,5.30
2022-11-05T00:18:04.677Z,4.43
2022-11-05T00:20:53.154Z,6.27
2022-11-05T00:23:54.306Z,4.80
2022-11-05T00:26:27.445Z,4.53
2022-11-05T00:29:02.048Z,11.53
2022-11-05T00:31:33.676Z,6.00
2022-11-05T00:34:03.949Z,3.97
2022-11-05T00:36:38.196Z,6.00
2022-11-05T00:39:53.004Z,6.83
2022-11-05T00:42:45.904Z,4.43
2022-11-05T00:45:16.959Z,4.40
2022-11-05T00:48:19.407Z,6.73
2022-11-05T00:50:50.754Z,4.23
2022-11-05T00:53:25.639Z,5.77
2022-11-05T00:56:04.355Z,5.13
2022-11-05T00:58:32.363Z,3.57
2022-11-05T01:02:04.357Z,4.90
2022-11-05T01:04:06.420Z,6.70
2022-11-05T01:06:40.005Z,3.57
2022-11-05T01:09:10.913Z,4.27
2022-11-05T01:12:24.294Z,3.90
2022-11-05T01:15:22.689Z,4.10
2022-11-05T01:18:14.070Z,4.90
2022-11-05T01:20:53.342Z,3.17
2022-11-05T01:23:28.747Z,4.40
2022-11-05T01:26:07.473Z,8.80
2022-11-05T01:28:39.468Z,4.17
2022-11-05T01:31:16.395Z,6.30
2022-11-05T01:33:49.225Z,6.60
2022-11-05T01:36:17.129Z,5.63
2022-11-05T01:38:46.759Z,6.27
2022-11-05T01:41:34.912Z,3.93
2022-11-05T01:44:52.220Z,5.17
2022-11-05T01:47:44.364Z,4.50
2022-11-05T01:50:31.570Z,3.93
2022-11-05T01:53:04.679Z,4.73
2022-11-05T01:55:35.315Z,4.90
2022-11-05T01:58:04.479Z,5.00
2022-11-05T02:00:58.411Z,5.60
2022-11-05T02:04:02.154Z,10.30
2022-11-05T02:06:30.614Z,6.53
2022-11-05T02:09:01.519Z,4.40
2022-11-05T02:11:49.816Z,3.83
2022-11-05T02:14:30.188Z,5.70
2022-11-05T02:17:13.063Z,4.80
2022-11-05T02:24:12.760Z,5.20
2022-11-05T02:30:04.848Z,8.20
2022-11-05T02:33:24.436Z,6.93
2022-11-05T02:36:33.652Z,6.83
2022-11-05T02:42:22.280Z,10.30
2022-11-05T02:45:12.546Z,8.70
2022-11-05T02:48:07.112Z,10.53
2022-11-05T02:50:57.740Z,9.80
2022-11-05T02:53:54.873Z,9.80
2022-11-05T02:56:49.286Z,12.80
2022-11-05T02:59:21.345Z,9.10
2022-11-05T03:01:49.421Z,9.30
2022-11-05T03:04:20.828Z,9.90
2022-11-05T03:07:08.222Z,10.63
2022-11-05T03:09:58.285Z,9.73
2022-11-05T03:12:33.485Z,9.70
2022-11-05T03:15:08.940Z,9.13
2022-11-05T03:17:42.591Z,12.00
2022-11-05T03:20:18.588Z,13.30
2022-11-05T03:22:52.355Z,11.57
2022-11-05T03:25:22.563Z,12.93
2022-11-05T03:27:55.719Z,14.97
2022-11-05T03:30:24.931Z,14.70
2022-11-05T03:32:56.126Z,16.30
2022-11-05T03:35:27.618Z,13.87
2022-11-05T03:37:58.909Z,15.93
2022-11-05T03:40:27.425Z,14.83
2022-11-05T03:42:56.492Z,13.20
2022-11-05T03:45:27.779Z,15.50
2022-11-05T03:47:59.002Z,18.53
2022-11-05T03:50:35.888Z,19.50
2022-11-05T03:53:29.251Z,15.80
2022-11-05T03:56:02.025Z,17.10
2022-11-05T03:58:30.502Z,16.93
2022-11-05T04:01:01.020Z,20.30
2022-11-05T04:03:28.640Z,24.07
2022-11-05T04:06:15.250Z,24.73
2022-11-05T04:09:00.486Z,29.90
2022-11-05T04:11:45.557Z,24.43
2022-11-05T04:14:13.120Z,25.40
2022-11-05T04:17:09.645Z,25.43
2022-11-05T04:20:04.507Z,23.70
2022-11-05T04:22:52.768Z,22.83
2022-11-05T04:25:21.859Z,27.33
2022-11-05T04:27:49.683Z,23.07
2022-11-05T04:30:20.548Z,24.80
2022-11-05T04:33:02.770Z,23.50
2022-11-05T04:35:31.453Z,26.20
2022-11-05T04:38:00.585Z,21.73
2022-11-05T04:40:28.272Z,27.07
2022-11-05T04:42:56.497Z,23.00
2022-11-05T04:45:36.918Z,26.03
2022-11-05T04:48:06.525Z,26.30
2022-11-05T04:50:34.972Z,21.33
2022-11-05T04:53:05.683Z,25.70
2022-11-05T04:55:33.315Z,23.33
2022-11-05T04:58:00.971Z,23.70
2022-11-05T05:00:29.387Z,22.17
2022-11-05T05:02:57.741Z,25.13
2022-11-05T05:05:26.511Z,22.90
2022-11-05T05:07:54.075Z,24.33
2022-11-05T05:10:23.480Z,22.73
2022-11-05T05:12:51.113Z,23.17
2022-11-05T05:15:18.851Z,22.90
2022-11-05T05:17:51.218Z,27.27
2022-11-05T05:20:36.240Z,24.33
2022-11-05T05:23:04.201Z,26.47
2022-11-05T05:25:33.415Z,20.63
2022-11-05T05:28:00.939Z,21.03
2022-11-05T05:30:28.566Z,22.13
2022-11-05T05:32:56.362Z,27.40
2022-11-05T05:35:24.788Z,19.50
2022-11-05T05:37:56.091Z,21.60
2022-11-05T05:40:25.150Z,17.63
2022-11-05T05:42:56.194Z,15.63
2022-11-05T05:45:23.786Z,17.30
2022-11-05T05:47:51.358Z,13.23
2022-11-05T05:50:20.273Z,16.93
2022-11-05T05:52:47.859Z,12.83
2022-11-05T05:55:15.468Z,13.93
2022-11-05T05:57:43.049Z,10.20
2022-11-05T06:00:14.116Z,12.77
2022-11-05T06:02:41.903Z,14.97
2022-11-05T06:05:11.262Z,17.07
2022-11-05T06:07:38.858Z,12.57
2022-11-05T06:10:07.510Z,14.10
2022-11-05T06:12:35.173Z,10.00
2022-11-05T06:15:03.163Z,11.83
2022-11-05T06:17:37.544Z,14.53
2022-11-05T06:20:06.028Z,13.87
2022-11-05T06:22:33.660Z,17.90
2022-11-05T06:25:01.618Z,12.40
2022-11-05T06:27:29.838Z,13.53
2022-11-05T06:29:57.548Z,12.80
2022-11-05T06:32:25.250Z,14.40
2022-11-05T06:34:54.165Z,15.57
2022-11-05T06:37:21.974Z,16.93
2022-11-05T06:39:49.885Z,15.50
2022-11-05T06:42:22.723Z,17.40
2022-11-05T06:45:08.736Z,12.13
2022-11-05T06:48:01.634Z,15.03
2022-11-05T06:50:39.216Z,12.20
2022-11-05T06:53:22.868Z,16.97
2022-11-05T06:55:50.607Z,16.93
2022-11-05T06:58:18.146Z,13.97
2022-11-05T07:00:45.960Z,13.77
2022-11-05T07:03:14.095Z,15.60
2022-11-05T07:05:45.035Z,16.50
2022-11-05T07:08:12.609Z,14.20
2022-11-05T07:10:40.263Z,16.77
2022-11-05T07:13:08.356Z,12.73
2022-11-05T07:15:36.566Z,19.60
2022-11-05T07:18:05.178Z,12.83
2022-11-05T07:20:34.438Z,15.33
2022-11-05T07:23:07.612Z,17.53
2022-11-05T07:25:35.977Z,16.40
2022-11-05T07:28:06.946Z,18.37
2022-11-05T07:30:35.878Z,17.87
2022-11-05T07:33:08.275Z,19.90
2022-11-05T07:35:36.309Z,16.10
2022-11-05T07:38:15.804Z,18.50
2022-11-05T07:40:49.708Z,17.97
2022-11-05T07:43:25.380Z,14.63
2022-11-05T07:45:56.951Z,20.67
2022-11-05T07:48:24.737Z,15.13
2022-11-05T07:50:57.685Z,19.30
2022-11-05T07:53:45.553Z,16.33
2022-11-05T07:56:13.802Z,21.57
2022-11-05T07:58:49.450Z,16.60
2022-11-05T08:01:22.129Z,18.13
2022-11-05T08:03:52.885Z,18.07
2022-11-05T08:06:20.859Z,18.13
2022-11-05T08:08:56.254Z,19.07
2022-11-05T08:11:24.406Z,19.23
2022-11-05T08:13:57.262Z,19.27
2022-11-05T08:16:26.345Z,12.13
2022-11-05T08:18:53.878Z,16.87
2022-11-05T08:21:24.472Z,15.10
2022-11-05T08:23:53.453Z,16.57
2022-11-05T08:26:24.919Z,15.30
2022-11-05T08:28:52.587Z,14.60
2022-11-05T08:31:20.257Z,17.90
2022-11-05T08:33:47.768Z,18.10
2022-11-05T08:36:15.359Z,17.33
2022-11-05T08:38:42.826Z,18.93
2022-11-05T08:41:11.863Z,18.03
2022-11-05T08:43:39.351Z,16.20
2022-11-05T08:46:07.085Z,17.27
2022-11-05T08:48:34.625Z,16.33
2022-11-05T08:51:02.592Z,15.03
2022-11-05T08:53:30.143Z,18.27
2022-11-05T08:55:59.333Z,14.23
2022-11-05T08:58:28.144Z,14.03
2022-11-05T09:00:58.999Z,18.67
2022-11-05T09:03:29.414Z,15.17
2022-11-05T09:05:56.954Z,14.77
2022-11-05T09:08:24.469Z,14.60
2022-11-05T09:10:51.923Z,15.63
2022-11-05T09:13:22.501Z,14.07
2022-11-05T09:15:51.861Z,13.73
2022-11-05T09:18:20.378Z,54.77
2022-11-05T09:20:48.168Z,13.83
2022-11-05T09:23:16.889Z,11.43
2022-11-05T09:25:45.034Z,14.77
2022-11-05T09:28:16.866Z,13.10
2022-11-05T09:30:46.143Z,10.03
2022-11-05T09:33:15.497Z,11.70
2022-11-05T09:35:43.698Z,11.30
2022-11-05T09:38:11.532Z,8.90
2022-11-05T09:40:43.452Z,7.90
2022-11-05T09:43:26.043Z,13.23
2022-11-05T09:46:06.189Z,8.90
2022-11-05T09:48:36.456Z,8.10
2022-11-05T09:51:05.377Z,10.43
2022-11-05T09:53:33.183Z,7.73
2022-11-05T09:56:01.702Z,9.40
2022-11-05T09:58:46.817Z,7.63
2022-11-05T10:01:17.140Z,10.53
2022-11-05T10:04:00.215Z,9.57
2022-11-05T10:06:30.843Z,7.90
2022-11-05T10:09:04.758Z,6.33
2022-11-05T10:11:36.225Z,8.93
2022-11-05T10:14:08.577Z,6.77
2022-11-05T10:16:37.529Z,10.93
2022-11-05T10:19:09.730Z,5.67
2022-11-05T10:22:04.845Z,7.63
2022-11-05T10:24:28.625Z,7.43
2022-11-05T10:26:56.556Z,6.60
2022-11-05T10:29:27.500Z,5.80
2022-11-05T10:31:58.990Z,5.90
2022-11-05T10:34:30.288Z,5.67
2022-11-05T10:36:58.141Z,5.97
2022-11-05T10:39:27.973Z,9.40
2022-11-05T10:42:18.563Z,9.33
2022-11-05T10:44:50.799Z,9.77
2022-11-05T10:47:33.798Z,6.30
2022-11-05T10:50:04.241Z,5.20
2022-11-05T10:52:34.935Z,7.13
2022-11-05T10:55:05.507Z,4.53
2022-11-05T10:57:36.073Z,5.90
2022-11-05T11:00:23.940Z,4.80
2022-11-05T11:02:53.391Z,5.77
2022-11-05T11:05:24.234Z,5.10
2022-11-05T11:07:58.420Z,4.77
2022-11-05T11:10:26.720Z,7.87
2022-11-05T11:12:55.243Z,4.77
2022-11-05T11:15:27.434Z,5.00
2022-11-05T11:17:57.695Z,4.47
2022-11-05T11:20:29.535Z,3.27
2022-11-05T11:23:03.161Z,5.43
2022-11-05T11:25:33.379Z,6.10
2022-11-05T11:28:05.241Z,3.30
2022-11-05T11:30:33.673Z,8.37
2022-11-05T11:33:06.827Z,4.57
2022-11-05T11:35:37.986Z,3.70
2022-11-05T11:38:06.701Z,2.90
2022-11-05T11:40:36.400Z,5.40
2022-11-05T11:43:06.911Z,3.97
2022-11-05T11:45:36.723Z,5.07
2022-11-05T11:48:07.270Z,6.57
2022-11-05T11:50:38.967Z,8.00
2022-11-05T11:53:27.156Z,5.60
2022-11-05T11:55:59.942Z,5.23
2022-11-05T11:58:38.310Z,3.40
2022-11-05T12:01:16.621Z,4.03
2022-11-05T12:03:50.378Z,3.47
2022-11-05T12:06:26.604Z,4.63
2022-11-05T12:09:03.562Z,8.00
2022-11-05T12:11:36.660Z,4.60
2022-11-05T12:14:06.298Z,3.60
2022-11-05T12:17:02.632Z,5.73
2022-11-05T12:19:43.081Z,5.13
2022-11-05T12:22:20.776Z,5.57
2022-11-05T12:25:02.419Z,6.03
2022-11-05T12:27:44.864Z,5.40
2022-11-05T12:30:15.306Z,5.50
2022-11-05T12:32:58.520Z,5.60
2022-11-05T12:35:44.205Z,5.90
2022-11-05T12:38:28.076Z,6.40
2022-11-05T12:41:06.259Z,5.30
2022-11-05T12:43:42.804Z,8.17
2022-11-05T12:46:27.573Z,5.33
2022-11-05T12:49:04.864Z,5.03
2022-11-05T12:51:41.691Z,8.03
2022-11-05T12:54:19.250Z,8.33
2022-11-05T12:56:49.038Z,5.03
2022-11-05T12:59:22.102Z,6.10
2022-11-05T13:01:51.911Z,7.27
2022-11-05T13:04:31.366Z,5.70
2022-11-05T13:07:01.727Z,9.63
2022-11-05T13:09:35.557Z,4.73
2022-11-05T13:12:06.237Z,4.40
2022-11-05T13:14:37.105Z,4.83
2022-11-05T13:17:07.413Z,4.63
2022-11-05T13:19:38.481Z,3.60
2022-11-05T13:22:13.140Z,6.10
2022-11-05T13:24:46.880Z,6.50
2022-11-05T13:27:28.983Z,2.70
2022-11-05T13:30:00.872Z,5.37
2022-11-05T13:32:30.511Z,2.50
2022-11-05T13:34:58.192Z,3.50
2022-11-05T13:37:45.703Z,3.87
2022-11-05T13:40:17.804Z,3.20
2022-11-05T13:43:13.373Z,3.27
2022-11-05T13:45:52.826Z,5.27
2022-11-05T13:48:39.637Z,1.80
2022-11-05T13:51:27.321Z,1.60
2022-11-05T13:54:10.770Z,3.20
2022-11-05T13:56:52.469Z,3.67
2022-11-05T13:59:33.765Z,5.00
2022-11-05T14:02:03.421Z,2.97
2022-11-05T14:04:33.863Z,2.50
2022-11-05T14:07:09.708Z,1.80
2022-11-05T14:09:38.344Z,2.80
2022-11-05T14:12:08.817Z,3.20
2022-11-05T14:14:44.174Z,2.90
2022-11-05T14:17:17.004Z,2.90
2022-11-05T14:19:53.150Z,4.10
2022-11-05T14:22:38.149Z,3.53
2022-11-05T14:25:39.451Z,3.87
2022-11-05T14:28:45.644Z,3.33
2022-11-05T14:32:02.507Z,3.33
2022-11-05T14:34:24.854Z,3.90
2022-11-05T14:37:29.380Z,5.33
2022-11-05T14:39:57.734Z,3.40
2022-11-05T14:42:27.866Z,4.40
2022-11-05T14:45:06.220Z,4.17
2022-11-05T14:47:39.250Z,2.50
2022-11-05T14:50:11.546Z,1.60
2022-11-05T14:52:41.687Z,3.50
2022-11-05T14:55:27.559Z,2.50
2022-11-05T14:58:09.543Z,2.73
2022-11-05T15:00:49.032Z,1.20
2022-11-05T15:03:50.287Z,2.13
2022-11-05T15:06:32.582Z,3.43
2022-11-05T15:09:34.072Z,3.30
2022-11-05T15:12:20.474Z,2.50
2022-11-05T15:14:59.573Z,1.53
2022-11-05T15:17:30.908Z,1.20
2022-11-05T15:20:09.336Z,3.53
2022-11-05T15:22:40.485Z,4.60
2022-11-05T15:25:19.392Z,2.83
2022-11-05T15:27:57.919Z,13.80
2022-11-05T15:30:27.515Z,2.80
2022-11-05T15:33:11.467Z,4.23
2022-11-05T15:35:41.547Z,2.47
2022-11-05T15:38:28.910Z,3.00
2022-11-05T15:41:01.436Z,3.70
2022-11-05T15:43:29.253Z,5.63
2022-11-05T15:46:02.642Z,2.03
2022-11-05T15:48:33.412Z,5.60
2022-11-05T15:51:11.886Z,3.20
2022-11-05T15:56:58.950Z,3.00
2022-11-05T15:59:28.161Z,2.40
2022-11-05T16:01:59.889Z,3.97
2022-11-05T16:04:33.020Z,5.97
2022-11-05T16:07:04.533Z,5.47
2022-11-05T16:09:33.852Z,5.10
2022-11-05T16:12:15.920Z,2.67
2022-11-05T16:14:45.819Z,4.20
2022-11-05T16:17:21.387Z,6.13
2022-11-05T16:19:51.403Z,11.53
2022-11-05T16:22:19.663Z,11.40
2022-11-05T16:24:48.306Z,9.53
2022-11-05T16:27:19.580Z,14.40
2022-11-05T16:29:53.033Z,6.70
2022-11-05T16:32:28.630Z,4.60
2022-11-05T16:35:00.611Z,6.90
2022-11-05T16:37:28.971Z,3.27
2022-11-05T16:39:56.742Z,6.33
2022-11-05T16:42:38.986Z,4.53
2022-11-05T16:45:07.952Z,5.77
2022-11-05T16:47:35.662Z,5.17
2022-11-05T16:50:15.079Z,3.50
2022-11-05T16:52:42.897Z,4.30
2022-11-05T16:55:10.618Z,6.00
2022-11-05T16:57:38.326Z,4.00
2022-11-05T17:00:07.604Z,3.83
2022-11-05T17:02:35.370Z,3.80
2022-11-05T17:05:04.604Z,8.47
2022-11-05T17:07:38.562Z,5.20
2022-11-05T17:10:09.245Z,5.30
2022-11-05T17:12:36.970Z,5.13
2022-11-05T17:15:16.029Z,8.10
2022-11-05T17:17:43.856Z,7.60
2022-11-05T17:20:15.512Z,7.67
2022-11-05T17:22:43.296Z,7.67
2022-11-05T17:25:11.116Z,8.33
2022-11-05T17:27:39.129Z,6.93
2022-11-05T17:30:08.445Z,11.13
2022-11-05T17:32:36.259Z,12.07
2022-11-05T17:35:04.737Z,10.10
2022-11-05T17:37:36.074Z,9.10
2022-11-05T17:40:04.866Z,7.07
2022-11-05T17:42:32.542Z,8.10
2022-11-05T17:45:00.336Z,12.97
2022-11-05T17:47:32.044Z,9.93
2022-11-05T17:49:59.823Z,10.50
2022-11-05T17:52:28.900Z,11.47
2022-11-05T17:54:59.955Z,14.40
2022-11-05T17:57:28.497Z,12.63
2022-11-05T17:59:56.264Z,12.87
2022-11-05T18:02:24.002Z,16.77
2022-11-05T18:04:52.125Z,15.23
2022-11-05T18:07:19.896Z,10.47
2022-11-05T18:09:47.852Z,13.13
2022-11-05T18:12:17.051Z,13.83
2022-11-05T18:14:44.849Z,13.60
2022-11-05T18:17:14.518Z,18.53
2022-11-05T18:19:42.206Z,12.10
2022-11-05T18:22:09.903Z,11.87
2022-11-05T18:24:37.470Z,13.37
2022-11-05T18:27:05.345Z,11.77
2022-11-05T18:29:34.394Z,11.30
2022-11-05T18:32:02.121Z,17.43
2022-11-05T18:34:30.010Z,15.47
2022-11-05T18:36:57.818Z,11.97
2022-11-05T18:39:25.775Z,13.57
2022-11-05T18:41:53.489Z,14.73
2022-11-05T18:44:22.866Z,13.10
2022-11-05T18:46:57.982Z,11.17
2022-11-05T18:49:26.370Z,13.00
2022-11-05T18:51:54.152Z,11.20
2022-11-05T18:54:21.990Z,10.20
2022-11-05T18:56:49.578Z,13.90
2022-11-05T19:02:09.217Z,10.20
2022-11-05T19:04:37.169Z,9.97
2022-11-05T19:07:06.002Z,12.10
2022-11-05T19:09:36.983Z,12.10
2022-11-05T19:12:07.111Z,11.20
2022-11-05T19:14:35.376Z,9.13
2022-11-05T19:17:04.253Z,9.10
2022-11-05T19:19:33.284Z,10.23
2022-11-05T19:22:00.960Z,11.50
2022-11-05T19:24:28.694Z,12.57
2022-11-05T19:26:56.762Z,8.57
2022-11-05T19:29:24.498Z,8.10
2022-11-05T19:31:52.296Z,10.27
2022-11-05T19:34:20.515Z,9.57
2022-11-05T19:36:49.559Z,17.83
2022-11-05T19:39:17.191Z,13.20
2022-11-05T19:41:44.781Z,13.50
2022-11-05T19:44:12.581Z,16.00
2022-11-05T19:46:40.244Z,12.10
2022-11-05T19:49:08.083Z,23.30
2022-11-05T19:51:35.678Z,53.07
2022-11-05T19:54:07.757Z,33.03
2022-11-05T19:56:36.719Z,18.07
2022-11-05T19:59:05.611Z,10.80
2022-11-05T20:01:34.132Z,12.30
2022-11-05T20:04:02.414Z,11.63
2022-11-05T20:06:32.899Z,13.30
2022-11-05T20:11:53.753Z,12.43
2022-11-05T20:14:21.755Z,11.27
2022-11-05T20:16:49.966Z,11.30
2022-11-05T20:19:19.376Z,9.40
2022-11-05T20:21:47.472Z,8.57
2022-11-05T20:24:23.326Z,9.53
2022-11-05T20:26:53.951Z,10.70
2022-11-05T20:29:22.341Z,9.60
2022-11-05T20:31:50.525Z,9.40
2022-11-05T20:34:18.167Z,12.17
2022-11-05T20:36:45.882Z,10.10
2022-11-05T20:39:15.339Z,11.77
2022-11-05T20:41:43.309Z,10.07
2022-11-05T20:44:12.448Z,9.00
2022-11-05T20:46:40.593Z,12.03
2022-11-05T20:49:08.215Z,9.67
2022-11-05T20:51:35.978Z,11.10
2022-11-05T20:54:04.293Z,11.13
2022-11-05T20:56:34.676Z,11.00
2022-11-05T20:59:02.977Z,16.03
2022-11-05T21:01:33.767Z,7.33
2022-11-05T21:04:02.810Z,8.97
2022-11-05T21:06:30.746Z,14.97
2022-11-05T21:08:58.700Z,8.27
2022-11-05T21:11:26.596Z,9.60
2022-11-05T21:13:55.099Z,10.90
2022-11-05T21:16:22.812Z,9.17
2022-11-05T21:18:51.929Z,8.70
2022-11-05T21:21:21.562Z,10.17
2022-11-05T21:23:51.522Z,7.40
2022-11-05T21:26:19.443Z,7.87
2022-11-05T21:28:47.273Z,7.93
2022-11-05T21:31:15.151Z,10.03
2022-11-05T21:33:42.811Z,9.37
2022-11-05T21:36:14.266Z,12.00
2022-11-05T21:38:42.548Z,8.70
2022-11-05T21:41:12.436Z,11.50
2022-11-05T21:43:41.669Z,8.70
2022-11-05T21:46:09.466Z,12.43
2022-11-05T21:48:37.692Z,10.37
2022-11-05T21:51:19.717Z,9.50
2022-11-05T21:54:07.520Z,10.67
2022-11-05T21:56:52.762Z,12.73
2022-11-05T21:59:40.340Z,11.10
2022-11-05T22:02:12.737Z,10.10
2022-11-05T22:04:42.279Z,13.50
2022-11-05T22:07:11.080Z,10.93
2022-11-05T22:09:40.172Z,10.00
2022-11-05T22:12:08.525Z,12.77
2022-11-05T22:14:36.395Z,15.33
2022-11-05T22:17:04.104Z,10.10
2022-11-05T22:19:33.530Z,11.83
2022-11-05T22:22:01.061Z,12.07
2022-11-05T22:24:30.667Z,10.90
2022-11-05T22:26:59.741Z,8.93
2022-11-05T22:29:27.642Z,9.57
2022-11-05T22:31:57.472Z,11.30
2022-11-05T22:34:25.579Z,13.27
2022-11-05T22:36:53.726Z,11.40
2022-11-05T22:39:21.647Z,16.47
2022-11-05T22:41:49.910Z,11.50
2022-11-05T22:44:19.072Z,9.90
2022-11-05T22:46:46.938Z,13.40
2022-11-05T22:49:15.010Z,10.30
2022-11-05T22:51:43.721Z,9.40
2022-11-05T22:54:12.042Z,9.93
2022-11-05T22:56:41.223Z,11.00
2022-11-05T22:59:12.080Z,11.87
2022-11-05T23:01:41.935Z,8.07
2022-11-05T23:04:10.179Z,14.50
2022-11-05T23:06:55.491Z,15.63
2022-11-05T23:09:42.667Z,9.77
2022-11-05T23:12:21.036Z,8.23
2022-11-05T23:14:48.850Z,17.67
2022-11-05T23:17:35.885Z,11.00
2022-11-05T23:20:23.486Z,9.17
2022-11-05T23:23:08.807Z,13.67
2022-11-05T23:25:36.756Z,13.10
2022-11-05T23:28:07.769Z,13.40
2022-11-05T23:30:35.647Z,12.23
2022-11-05T23:33:03.865Z,11.70
2022-11-05T23:35:48.859Z,10.60
2022-11-05T23:38:35.364Z,10.63
2022-11-05T23:41:20.899Z,9.70
2022-11-05T23:44:06.330Z,19.70
2022-11-05T23:46:51.778Z,13.30
2022-11-05T23:49:20.962Z,13.40
2022-11-05T23:51:51.643Z,11.13
2022-11-05T23:54:19.394Z,11.53
2022-11-05T23:56:47.093Z,12.13
2022-11-05T23:59:14.762Z,10.37
